createdAt,value
2023-05-03T00:01:31.782Z,88.18
2023-05-03T00:06:33.544Z,88.99
2023-05-03T00:11:35.202Z,88.83
2023-05-03T00:16:36.931Z,90.78
2023-05-03T00:21:38.673Z,90.09
2023-05-03T00:26:40.278Z,91.57
2023-05-03T00:31:44.587Z,90.10
2023-05-03T00:36:46.279Z,91.76
2023-05-03T00:41:47.916Z,91.54
2023-05-03T00:46:50.033Z,92.40
2023-05-03T00:51:53.416Z,91.35
2023-05-03T00:56:56.745Z,90.42
2023-05-03T01:01:58.543Z,89.72
2023-05-03T01:07:12.243Z,91.42
2023-05-03T01:13:11.094Z,90.00
2023-05-03T01:18:18.660Z,89.71
2023-05-03T01:23:57.334Z,90.78
2023-05-03T01:29:00.353Z,90.29
2023-05-03T01:34:17.028Z,90.50
2023-05-03T01:39:23.343Z,90.12
2023-05-03T01:44:25.800Z,92.29
2023-05-03T01:49:27.396Z,92.50
2023-05-03T01:54:29.054Z,91.43
2023-05-03T01:59:30.746Z,91.81
2023-05-03T02:04:32.478Z,93.80
2023-05-03T02:09:34.119Z,95.04
2023-05-03T02:14:35.862Z,92.95
2023-05-03T02:19:37.465Z,92.36
2023-05-03T02:24:40.128Z,91.63
2023-05-03T02:29:41.811Z,93.09
2023-05-03T02:34:48.966Z,93.33
2023-05-03T02:39:51.090Z,93.09
2023-05-03T02:44:52.700Z,93.57
2023-05-03T02:49:54.276Z,93.43
2023-05-03T02:54:56.042Z,94.50
2023-05-03T02:59:57.668Z,93.18
2023-05-03T03:04:59.436Z,94.49
2023-05-03T03:10:01.404Z,93.40
2023-05-03T03:15:04.030Z,94.52
2023-05-03T03:20:11.606Z,93.31
2023-05-03T03:25:13.320Z,92.35
2023-05-03T03:30:15.371Z,92.75
2023-05-03T03:35:17.245Z,92.79
2023-05-03T03:40:18.920Z,93.51
2023-05-03T03:45:20.568Z,91.82
2023-05-03T03:50:22.208Z,91.70
2023-05-03T03:55:23.781Z,91.47
2023-05-03T04:00:25.597Z,91.46
2023-05-03T04:05:27.292Z,91.76
2023-05-03T04:10:28.902Z,91.00
2023-05-03T04:15:30.567Z,91.32
2023-05-03T04:20:33.134Z,91.73
2023-05-03T04:25:37.160Z,91.21
2023-05-03T04:30:38.767Z,90.87
2023-05-03T04:35:41.465Z,92.02
2023-05-03T04:40:43.185Z,92.46
2023-05-03T04:45:44.748Z,92.24
2023-05-03T04:50:46.484Z,91.31
2023-05-03T04:55:48.032Z,91.88
2023-05-03T05:00:50.347Z,91.53
2023-05-03T05:05:52.054Z,91.17
2023-05-03T05:10:53.665Z,91.26
2023-05-03T05:15:55.845Z,91.09
2023-05-03T05:20:57.473Z,91.61
2023-05-03T05:26:00.664Z,90.00
2023-05-03T05:31:02.325Z,91.13
2023-05-03T05:36:04.673Z,90.87
2023-05-03T05:41:06.663Z,92.03
2023-05-03T05:46:08.822Z,91.81
2023-05-03T05:51:10.466Z,91.36
2023-05-03T05:56:12.049Z,91.48
2023-05-03T06:01:13.726Z,90.48
2023-05-03T06:06:15.337Z,90.06
2023-05-03T06:11:17.498Z,90.59
2023-05-03T06:16:19.328Z,90.75
2023-05-03T06:21:21.857Z,89.34
2023-05-03T06:26:24.666Z,89.00
2023-05-03T06:31:26.502Z,89.31
2023-05-03T06:36:30.385Z,89.52
2023-05-03T06:41:34.637Z,89.31
2023-05-03T06:46:36.279Z,89.30
2023-05-03T06:51:37.970Z,88.11
2023-05-03T06:56:39.527Z,87.82
2023-05-03T07:01:41.180Z,87.60
2023-05-03T07:06:55.466Z,87.19
2023-05-03T07:11:58.198Z,87.17
2023-05-03T07:16:59.820Z,86.05
2023-05-03T07:22:03.380Z,87.23
2023-05-03T07:27:05.542Z,86.71
2023-05-03T07:32:07.229Z,85.87
2023-05-03T07:37:08.805Z,86.43
2023-05-03T07:42:10.502Z,85.32
2023-05-03T07:47:12.218Z,84.90
2023-05-03T07:52:13.821Z,85.73
2023-05-03T07:57:16.446Z,86.44
2023-05-03T08:02:18.174Z,86.14
2023-05-03T08:07:20.156Z,85.54
2023-05-03T08:12:21.710Z,84.89
2023-05-03T08:17:24.114Z,85.16
2023-05-03T08:22:27.073Z,83.58
2023-05-03T08:27:28.703Z,84.52
2023-05-03T08:32:30.648Z,83.33
2023-05-03T08:37:38.324Z,83.89
2023-05-03T08:42:41.761Z,82.35
2023-05-03T08:47:45.575Z,81.52
2023-05-03T08:52:47.496Z,81.27
2023-05-03T08:57:49.111Z,81.29
2023-05-03T09:02:51.857Z,81.27
2023-05-03T09:08:17.170Z,79.41
2023-05-03T09:13:19.109Z,78.90
2023-05-03T09:18:21.313Z,79.04
2023-05-03T09:23:32.438Z,79.10
2023-05-03T09:28:42.430Z,79.22
2023-05-03T09:33:44.402Z,79.31
2023-05-03T09:38:46.039Z,79.40
2023-05-03T09:43:52.303Z,79.97
2023-05-03T09:48:56.999Z,78.53
2023-05-03T09:53:59.556Z,76.11
2023-05-03T09:59:01.141Z,77.47
2023-05-03T10:04:03.955Z,77.29
2023-05-03T10:09:16.583Z,78.11
2023-05-03T10:14:18.979Z,76.49
2023-05-03T10:19:32.362Z,77.53
2023-05-03T10:24:38.486Z,78.29
2023-05-03T10:29:48.701Z,76.32
2023-05-03T10:34:57.896Z,76.89
2023-05-03T10:40:10.293Z,76.96
2023-05-03T10:45:28.726Z,75.90
2023-05-03T10:50:30.402Z,75.09
2023-05-03T10:55:32.757Z,77.11
2023-05-03T11:00:38.510Z,75.60
2023-05-03T11:05:40.149Z,74.58
2023-05-03T11:10:42.076Z,75.79
2023-05-03T11:15:44.795Z,74.20
2023-05-03T11:20:47.973Z,74.06
2023-05-03T11:25:52.074Z,74.52
2023-05-03T11:30:53.927Z,71.84
2023-05-03T11:35:56.678Z,72.29
2023-05-03T11:40:59.882Z,71.34
2023-05-03T11:46:01.729Z,69.44
2023-05-03T11:51:11.069Z,69.02
2023-05-03T11:56:18.960Z,68.40
2023-05-03T12:01:23.829Z,69.52
2023-05-03T12:06:28.031Z,69.18
2023-05-03T12:11:32.040Z,67.21
2023-05-03T12:16:51.830Z,69.31
2023-05-03T12:22:13.347Z,69.54
2023-05-03T12:27:17.306Z,67.43
2023-05-03T12:32:22.976Z,69.59
2023-05-03T12:37:27.611Z,66.74
2023-05-03T12:42:30.883Z,68.28
2023-05-03T12:47:36.428Z,65.57
2023-05-03T12:52:38.958Z,65.71
2023-05-03T12:57:42.539Z,63.18
2023-05-03T13:07:55.979Z,65.90
2023-05-03T13:12:57.858Z,62.71
2023-05-03T13:18:01.764Z,65.37
2023-05-03T13:23:04.344Z,63.56
2023-05-03T13:28:05.973Z,64.72
2023-05-03T13:33:08.379Z,65.30
2023-05-03T13:38:10.085Z,65.26
2023-05-03T13:43:11.982Z,64.86
2023-05-03T13:48:17.695Z,65.93
2023-05-03T13:53:20.994Z,64.30
2023-05-03T13:58:22.788Z,62.75
2023-05-03T14:03:26.103Z,63.82
2023-05-03T14:08:27.835Z,61.58
2023-05-03T14:13:34.869Z,62.31
2023-05-03T14:18:42.318Z,62.88
2023-05-03T14:23:47.346Z,62.90
2023-05-03T14:28:48.960Z,62.49
2023-05-03T14:33:50.687Z,61.46
2023-05-03T14:38:52.352Z,60.84
2023-05-03T14:43:53.949Z,60.22
2023-05-03T14:48:55.783Z,59.63
2023-05-03T14:53:57.487Z,61.56
2023-05-03T14:58:59.498Z,67.38
2023-05-03T15:04:01.267Z,73.59
2023-05-03T15:09:02.959Z,74.65
2023-05-03T15:14:04.635Z,74.75
2023-05-03T15:19:07.526Z,75.84
2023-05-03T15:24:09.260Z,73.36
2023-05-03T15:29:11.315Z,72.55
2023-05-03T15:34:13.146Z,77.85
2023-05-03T15:39:14.869Z,77.31
2023-05-03T15:44:16.490Z,78.08
2023-05-03T15:49:18.122Z,76.86
2023-05-03T15:54:19.730Z,76.98
2023-05-03T15:59:21.397Z,76.92
2023-05-03T16:04:23.019Z,76.49
2023-05-03T16:09:24.701Z,76.23
2023-05-03T16:14:26.512Z,76.28
2023-05-03T16:19:28.097Z,76.57
2023-05-03T16:24:29.816Z,76.11
2023-05-03T16:29:33.746Z,75.53
2023-05-03T16:34:35.796Z,75.46
2023-05-03T16:39:37.685Z,75.44
2023-05-03T16:44:39.300Z,77.08
2023-05-03T16:49:40.930Z,77.79
2023-05-03T16:54:43.482Z,77.47
2023-05-03T16:59:45.192Z,77.47
2023-05-03T17:04:46.807Z,77.06
2023-05-03T17:09:48.416Z,77.69
2023-05-03T17:14:50.059Z,77.09
2023-05-03T17:19:51.705Z,77.66
2023-05-03T17:24:55.273Z,77.66
2023-05-03T17:29:57.482Z,77.74
2023-05-03T17:34:59.169Z,78.34
2023-05-03T17:40:00.949Z,78.48
2023-05-03T17:45:04.276Z,80.26
2023-05-03T17:50:06.635Z,80.76
2023-05-03T17:55:08.813Z,82.40
2023-05-03T18:00:17.043Z,84.95
2023-05-03T18:05:18.848Z,84.62
2023-05-03T18:10:21.077Z,85.91
2023-05-03T18:15:22.831Z,84.85
2023-05-03T18:20:24.828Z,81.41
2023-05-03T18:25:26.742Z,83.28
2023-05-03T18:30:29.440Z,83.64
2023-05-03T18:35:31.341Z,84.79
2023-05-03T18:40:33.030Z,84.61
2023-05-03T18:45:38.853Z,85.35
2023-05-03T18:50:43.424Z,83.98
2023-05-03T18:55:45.774Z,84.79
2023-05-03T19:00:48.589Z,84.63
2023-05-03T19:05:50.923Z,85.23
2023-05-03T19:10:52.980Z,85.41
2023-05-03T19:15:57.462Z,85.70
2023-05-03T19:20:59.610Z,85.79
2023-05-03T19:26:01.975Z,85.50
2023-05-03T19:31:08.031Z,85.27
2023-05-03T19:36:15.075Z,85.74
2023-05-03T19:41:17.252Z,86.87
2023-05-03T19:46:20.933Z,87.42
2023-05-03T19:51:22.792Z,87.22
2023-05-03T19:56:25.260Z,87.24
2023-05-03T20:01:27.302Z,87.67
2023-05-03T20:06:29.205Z,87.54
2023-05-03T20:11:30.911Z,87.82
2023-05-03T20:16:37.470Z,87.92
2023-05-03T20:21:39.107Z,87.93
2023-05-03T20:26:41.258Z,87.87
2023-05-03T20:31:44.348Z,88.28
2023-05-03T20:36:47.260Z,88.38
2023-05-03T20:41:48.924Z,87.69
2023-05-03T20:46:51.249Z,87.72
2023-05-03T20:51:52.922Z,88.07
2023-05-03T20:56:54.505Z,89.37
2023-05-03T21:01:56.481Z,89.87
2023-05-03T21:06:58.061Z,89.22
2023-05-03T21:11:59.688Z,89.25
2023-05-03T21:17:01.558Z,89.98
2023-05-03T21:22:03.180Z,89.39
2023-05-03T21:27:04.789Z,89.52
2023-05-03T21:32:06.913Z,89.12
2023-05-03T21:37:08.515Z,89.21
2023-05-03T21:42:10.111Z,90.21
2023-05-03T21:47:11.692Z,89.55
2023-05-03T21:52:13.812Z,89.31
2023-05-03T21:57:15.408Z,88.88
2023-05-03T22:02:17.449Z,89.61
2023-05-03T22:07:19.069Z,89.44
2023-05-03T22:12:24.307Z,90.04
2023-05-03T22:17:27.252Z,88.69
2023-05-03T22:22:28.869Z,88.25
2023-05-03T22:27:30.582Z,88.32
2023-05-03T22:32:32.465Z,88.26
2023-05-03T22:37:34.614Z,88.72
2023-05-03T22:42:36.391Z,88.17
2023-05-03T22:47:38.071Z,87.31
2023-05-03T22:52:39.782Z,87.37
2023-05-03T22:57:41.832Z,87.69
2023-05-03T23:02:43.530Z,87.86
2023-05-03T23:07:45.227Z,87.75
2023-05-03T23:12:46.900Z,87.36
2023-05-03T23:17:48.555Z,87.52
2023-05-03T23:22:50.430Z,87.48
2023-05-03T23:27:52.076Z,86.95
2023-05-03T23:32:54.087Z,88.62
2023-05-03T23:37:56.293Z,89.01
2023-05-03T23:42:57.899Z,89.49
2023-05-03T23:47:59.486Z,88.27
2023-05-03T23:53:03.578Z,88.66
2023-05-03T23:58:05.279Z,88.03
